Catàleg de serveis del Meteocat

Dades de l'estació automàtica Castellnou de Bages

?
?
Resum diari 21:30 TU
Dades diàries de l'estació meteorològica
Temperatura mitjana 10.1 °C
Temperatura màxima 19.8 °C 15:01 TU
Temperatura mínima 1.0 °C 6:43 TU
Humitat relativa mitjana 61%
Precipitació acumulada 0.1 mm
Ratxa màxima del vent (10 m) 19.4 km/h - 287º 18:30 TU
Irradiació solar global 16.3 MJ/m2

El tram horari està expressat en Temps Universal (TU). Cal sumar una hora en horari d'hivern i dues en horari d'estiu per passar a l'hora oficial.

Castellnou de Bages

Metadades estació meteorol´gica
Municipi Castellnou de Bages
Comarca Bages
Altitud 507 m
Data alta 22.01.1998
Estat actual Operativa
Dades de període
Període
TU
TM
°C
TX
°C
TN
°C
HRM
%
PPT
mm
VVM (10 m)
km/h
DVM (10 m)
graus
VVX (10 m)
km/h
RS
W/m2
00:00 - 00:30 4.7 5.1 4.5 90 0.0 8.3 4 13.7 0
00:30 - 01:00 4.6 4.8 4.4 85 0.0 2.5 349 10.8 0
01:00 - 01:30 5.2 5.5 4.5 78 0.1 6.8 11 12.6 0
01:30 - 02:00 5.1 5.4 4.6 77 0.0 5.8 358 13.0 0
02:00 - 02:30 4.3 5.3 3.8 83 0.0 8.6 14 14.8 0
02:30 - 03:00 5.0 5.4 4.7 75 0.0 9.4 11 14.8 0
03:00 - 03:30 5.3 5.5 4.9 72 0.0 11.9 4 15.8 0
03:30 - 04:00 4.3 5.1 3.4 75 0.0 3.6 282 14.8 0
04:00 - 04:30 4.2 4.6 3.9 75 0.0 2.2 331 5.8 0
04:30 - 05:00 4.2 4.9 3.5 74 0.0 2.5 40 5.0 0
05:00 - 05:30 3.0 4.2 2.3 81 0.0 4.0 21 7.6 0
05:30 - 06:00 3.2 3.8 2.7 80 0.0 4.3 294 9.7 0
06:00 - 06:30 2.1 3.4 1.4 81 0.0 5.8 45 12.2 0
06:30 - 07:00 1.9 2.9 1.0 82 0.0 7.6 32 12.6 10
07:00 - 07:30 3.1 4.0 2.5 77 0.0 9.0 14 14.8 79
07:30 - 08:00 4.5 4.8 4.1 73 0.0 8.6 11 16.2 174
08:00 - 08:30 5.8 6.5 4.9 74 0.0 7.9 13 14.8 273
08:30 - 09:00 7.1 8.0 6.4 69 0.0 6.8 10 13.0 370
09:00 - 09:30 8.3 9.1 7.2 68 0.0 5.0 32 11.2 459
09:30 - 10:00 10.5 11.4 9.1 63 0.0 3.2 166 8.6 530
10:00 - 10:30 11.8 12.8 10.7 57 0.0 3.6 194 9.0 592
10:30 - 11:00 13.7 14.8 12.8 51 0.0 5.4 166 10.1 642
11:00 - 11:30 13.7 14.3 13.1 54 0.0 4.3 82 9.0 672
11:30 - 12:00 15.3 16.2 14.0 45 0.0 6.1 229 15.1 691
12:00 - 12:30 16.7 17.7 15.4 44 0.0 5.0 203 11.2 692
12:30 - 13:00 17.6 18.2 16.9 39 0.0 6.8 238 13.3 678
13:00 - 13:30 18.0 18.7 17.4 35 0.0 7.6 269 14.8 648
13:30 - 14:00 18.5 19.0 18.2 32 0.0 6.1 286 14.0 601
14:00 - 14:30 19.1 19.6 18.6 31 0.0 6.1 268 12.2 540
14:30 - 15:00 19.2 19.6 18.9 31 0.0 7.6 249 14.8 468
15:00 - 15:30 19.3 19.8 18.8 32 0.0 6.5 259 14.8 384
15:30 - 16:00 18.6 19.0 18.0 35 0.0 9.4 257 14.8 293
16:00 - 16:30 17.8 18.2 17.4 38 0.0 7.2 270 13.3 197
16:30 - 17:00 16.5 17.3 15.8 42 0.0 8.3 269 14.8 105
17:00 - 17:30 14.7 15.7 13.5 48 0.0 6.8 273 14.0 28
17:30 - 18:00 13.1 13.5 12.5 52 0.0 8.3 272 16.9 0
18:00 - 18:30 12.2 12.5 12.0 56 0.0 7.6 284 18.4 0
18:30 - 19:00 11.6 12.0 11.3 58 0.0 8.6 291 19.4 0
19:00 - 19:30 11.3 11.5 11.2 59 0.0 10.8 298 18.7 0
19:30 - 20:00 11.0 11.3 10.8 61 0.0 7.6 339 16.6 0
20:00 - 20:30 10.7 11.5 9.8 62 0.0 5.0 320 10.1 0
20:30 - 21:00 10.2 10.6 9.8 65 0.0 5.4 351 11.2 0
21:00 - 21:30 9.6 10.0 9.3 67 0.0 4.0 16 7.9 0
21:30 - 22:00 8.7 9.1 8.1 70 0.0 6.8 32 11.2 0

Les dades en taronja només han passat un control de qualitat automàtic. Resta pendent la seva validació definitiva.